Alyeska Resort
Max's Hourly Weather Roundup
ALYESKA_MAX 8/21/2017
Click Here for Graph

        DATE  TIME   Air  Wind  Wind  Wind  BATT   Rel
                    Temp   Spd   Dir  Gust  Volt  Hum%
                      F   MPH   AVG   MPH   AVG   AVG

   8/21/2017 13:00    47    16    28    22 13.68    94
   8/21/2017 12:00    46    17    32    25 13.75    93
   8/21/2017 11:00    45    10    74    22 13.66    97
   8/21/2017 10:00    44     6   118    19 13.63    99
   8/21/2017 09:00    44     2   105    12 13.10    97
   8/21/2017 08:00    44     6    49    13 12.75    97
   8/21/2017 07:00    44     8    29    16 12.73    98
   8/21/2017 06:00    43     8    22    16 12.74    98
   8/21/2017 05:00    43    12    20    19 12.75    99
   8/21/2017 04:00    44    20    23    27 12.77    94
   8/21/2017 03:00    43    17    22    27 12.79    96
   8/21/2017 02:00    43    17    55    28 12.81    98
   8/21/2017 01:00    43    17    96    26 12.85    98
   8/20/2017 24:00    43    14   140    26 12.89    98
   8/20/2017 23:00    43    13   106    23 12.97    97
   8/20/2017 22:00    42    14    81    24 13.10    96
   8/20/2017 21:00    42    18    62    29 13.32    98
   8/20/2017 20:00    41    18    50    30 13.58    99
   8/20/2017 19:00    41    13    57    34 13.73    99
   8/20/2017 18:00    41    14    65    33 13.73    99
   8/20/2017 17:00    41    14    62    32 13.65    97
   8/20/2017 16:00    41    14    88    28 13.65    98
   8/20/2017 15:00    41    10   127    31 13.70    98
   8/20/2017 14:00    41    10    95    29 13.59    98


Click Here for Graph